Minerva Libra — SVAA7 — position and weather

sailwx.info

Track history (hours):
 
Tides and Currents Weather Stations Pressure Air Temp Water Temp Dewpoint Dewpoint Depression Visibility Wind Speed Wind Dir Waves Ship Positions

Minerva Libra

Last reported at 2014-Dec-18 00:15 UTC. Time now 2014-Dec-22 21:23 UTC.
Position N 37°24' W 000°32'.

Length 250 m; draft 8.5 m.

Type: Tanker. MMSI: 240766000.

Date/timePositionNaut miles runAvg speedWind from/ knotsBaromVisibWave heightAir tempDewpointWater temp
2014-Dec-18 00:15N 37°24' W 000°32'7 9.3
2014-Dec-17 23:31N 37°26' W 000°40'9 8.9
2014-Dec-17 22:31N 37°28' W 000°51'9 8.8
2014-Dec-17 21:34N 37°31' W 001°01'4 3.7
2014-Dec-17 20:33N 37°34' W 000°58'0 0.0
2014-Dec-17 19:03N 37°34' W 000°58'0 0.0
2014-Dec-17 18:33N 37°34' W 000°58'0 0.0
2014-Dec-17 17:33N 37°34' W 000°58'0 0.0
2014-Dec-17 16:33N 37°34' W 000°58'0 0.0
2014-Dec-17 15:33N 37°34' W 000°58'0 0.0
2014-Dec-17 03:33N 37°34' W 000°58'0 0.0
2014-Dec-17 02:33N 37°34' W 000°58'0 0.0
2014-Dec-17 01:33N 37°34' W 000°58'0 0.0
2014-Dec-17 00:33N 37°34' W 000°58'0 0.0
2014-Dec-16 23:33N 37°34' W 000°58'0 0.0
2014-Dec-16 22:33N 37°34' W 000°58'0 0.0
2014-Dec-16 21:30N 37°34' W 000°58'0 0.0
2014-Dec-16 20:33N 37°34' W 000°58'0 0.0
2014-Dec-16 19:33N 37°34' W 000°58'0 0.0
2014-Dec-16 18:33N 37°34' W 000°58'0 0.0
2014-Dec-16 17:33N 37°34' W 000°58'0 0.0
2014-Dec-16 16:33N 37°34' W 000°58'0 0.0
2014-Dec-16 15:33N 37°34' W 000°58'0 0.0
2014-Dec-16 13:21N 37°34' W 000°58'0 0.0
2014-Dec-16 12:33N 37°34' W 000°58'0 0.0
2014-Dec-16 11:33N 37°34' W 000°58'0 0.0
2014-Dec-16 10:33N 37°34' W 000°58'0 0.0
2014-Dec-16 09:33N 37°34' W 000°58'0 0.0
2014-Dec-16 08:33N 37°34' W 000°58'2 1.9
2014-Dec-16 07:33N 37°33' W 001°00'9 9.1
2014-Dec-16 06:33N 37°26' W 001°07'21712.1
2014-Dec-15 12:33N 36°00' W 005°16'  
Track history (hours):
 
Tides and Currents Weather Stations Pressure Air Temp Water Temp Dewpoint Dewpoint Depression Visibility Wind Speed Wind Dir Waves Ship Positions

Minerva Libra

Last reported at 2014-Dec-18 00:15 UTC. Time now 2014-Dec-22 21:23 UTC.
Position N 37°24' W 000°32'.

Length 250 m; draft 8.5 m.

Type: Tanker. MMSI: 240766000.

Date/timePositionNaut miles runAvg speedWind from/ knotsBaromVisibWave heightAir tempDewpointWater temp
2014-Dec-18 00:15N 37°24' W 000°32'7 9.3
2014-Dec-17 23:31N 37°26' W 000°40'9 8.9
2014-Dec-17 22:31N 37°28' W 000°51'9 8.8
2014-Dec-17 21:34N 37°31' W 001°01'4 3.7
2014-Dec-17 20:33N 37°34' W 000°58'0 0.0
2014-Dec-17 19:03N 37°34' W 000°58'0 0.0
2014-Dec-17 18:33N 37°34' W 000°58'0 0.0
2014-Dec-17 17:33N 37°34' W 000°58'0 0.0
2014-Dec-17 16:33N 37°34' W 000°58'0 0.0
2014-Dec-17 15:33N 37°34' W 000°58'0 0.0
2014-Dec-17 03:33N 37°34' W 000°58'0 0.0
2014-Dec-17 02:33N 37°34' W 000°58'0 0.0
2014-Dec-17 01:33N 37°34' W 000°58'0 0.0
2014-Dec-17 00:33N 37°34' W 000°58'0 0.0
2014-Dec-16 23:33N 37°34' W 000°58'0 0.0
2014-Dec-16 22:33N 37°34' W 000°58'0 0.0
2014-Dec-16 21:30N 37°34' W 000°58'0 0.0
2014-Dec-16 20:33N 37°34' W 000°58'0 0.0
2014-Dec-16 19:33N 37°34' W 000°58'0 0.0
2014-Dec-16 18:33N 37°34' W 000°58'0 0.0
2014-Dec-16 17:33N 37°34' W 000°58'0 0.0
2014-Dec-16 16:33N 37°34' W 000°58'0 0.0
2014-Dec-16 15:33N 37°34' W 000°58'0 0.0
2014-Dec-16 13:21N 37°34' W 000°58'0 0.0
2014-Dec-16 12:33N 37°34' W 000°58'0 0.0
2014-Dec-16 11:33N 37°34' W 000°58'0 0.0
2014-Dec-16 10:33N 37°34' W 000°58'0 0.0
2014-Dec-16 09:33N 37°34' W 000°58'0 0.0
2014-Dec-16 08:33N 37°34' W 000°58'2 1.9
2014-Dec-16 07:33N 37°33' W 001°00'9 9.1
2014-Dec-16 06:33N 37°26' W 001°07'21712.1
2014-Dec-15 12:33N 36°00' W 005°16'  

Dump ship's entire track history